createdAt,value
2022-11-11T00:01:48.833Z,102066.47
2022-11-11T00:07:59.535Z,102091.78
2022-11-11T00:14:05.153Z,102096.56
2022-11-11T00:20:33.495Z,102106.44
2022-11-11T00:26:42.261Z,102100.50
2022-11-11T00:32:47.511Z,102098.41
2022-11-11T00:38:55.811Z,102114.44
2022-11-11T00:45:01.191Z,102110.13
2022-11-11T00:51:06.792Z,102115.19
2022-11-11T00:57:12.633Z,102114.44
2022-11-11T01:03:17.601Z,102125.88
2022-11-11T01:09:23.269Z,102123.69
2022-11-11T01:15:28.739Z,102124.31
2022-11-11T01:21:36.253Z,102114.88
2022-11-11T01:27:41.779Z,102113.84
2022-11-11T01:33:47.581Z,102123.44
2022-11-11T01:39:54.348Z,102119.72
2022-11-11T01:46:03.728Z,102111.94
2022-11-11T01:52:18.357Z,102117.06
2022-11-11T01:58:23.604Z,102114.44
2022-11-11T02:04:48.242Z,102121.38
2022-11-11T02:10:56.090Z,102127.56
2022-11-11T02:17:05.298Z,102133.69
2022-11-11T02:23:14.652Z,102134.19
2022-11-11T02:29:21.893Z,102146.47
2022-11-11T02:35:33.789Z,102137.31
2022-11-11T02:41:57.160Z,102128.47
2022-11-11T02:48:03.038Z,102125.59
2022-11-11T02:54:08.655Z,102134.94
2022-11-11T03:00:14.938Z,102129.34
2022-11-11T03:06:26.677Z,102128.56
2022-11-11T03:12:32.144Z,102127.16
2022-11-11T03:18:37.553Z,102130.38
2022-11-11T03:25:01.358Z,102124.03
2022-11-11T03:31:06.445Z,102119.78
2022-11-11T03:37:30.971Z,102117.66
2022-11-11T03:43:35.949Z,102114.16
2022-11-11T03:49:41.301Z,102119.47
2022-11-11T03:55:51.314Z,102110.72
2022-11-11T04:02:15.133Z,102119.53
2022-11-11T04:08:40.559Z,102119.25
2022-11-11T04:15:04.377Z,102119.03
2022-11-11T04:21:28.354Z,102118.72
2022-11-11T04:27:33.414Z,102121.09
2022-11-11T04:33:39.992Z,102113.38
2022-11-11T04:40:06.015Z,102099.22
2022-11-11T04:46:11.313Z,102109.09
2022-11-11T04:52:31.651Z,102111.22
2022-11-11T04:58:36.815Z,102112.53
2022-11-11T05:04:42.118Z,102113.41
2022-11-11T05:10:47.463Z,102123.56
2022-11-11T05:17:14.037Z,102124.13
2022-11-11T05:23:19.251Z,102127.59
2022-11-11T05:29:24.661Z,102131.56
2022-11-11T05:35:36.724Z,102133.69
2022-11-11T05:41:42.076Z,102116.34
2022-11-11T05:47:47.602Z,102109.56
2022-11-11T05:53:52.927Z,102116.06
2022-11-11T05:59:59.071Z,102109.09
2022-11-11T06:06:05.675Z,102117.13
2022-11-11T06:12:10.947Z,102129.06
2022-11-11T06:18:16.325Z,102133.09
2022-11-11T06:24:26.024Z,102130.16
2022-11-11T06:36:57.672Z,102158.97
2022-11-11T06:43:03.205Z,102154.78
2022-11-11T06:49:08.436Z,102159.31
2022-11-11T06:55:14.427Z,102167.84
2022-11-11T07:01:20.914Z,102170.00
2022-11-11T07:07:29.865Z,102172.13
2022-11-11T07:13:36.198Z,102174.81
2022-11-11T07:19:44.645Z,102179.03
2022-11-11T07:25:49.954Z,102181.19
2022-11-11T07:31:55.655Z,102186.00
2022-11-11T07:38:03.309Z,102199.56
2022-11-11T07:44:08.853Z,102200.97
2022-11-11T07:50:14.504Z,102207.03
2022-11-11T07:56:20.061Z,102208.66
2022-11-11T08:02:30.591Z,102229.72
2022-11-11T08:08:36.441Z,102211.59
2022-11-11T08:14:43.142Z,102234.28
2022-11-11T08:20:54.519Z,102239.06
2022-11-11T08:27:04.960Z,102245.19
2022-11-11T08:33:32.309Z,102256.34
2022-11-11T08:39:36.498Z,102255.25
2022-11-11T08:45:41.723Z,102256.91
2022-11-11T08:51:47.350Z,102257.59
2022-11-11T08:58:05.694Z,102256.56
2022-11-11T09:04:42.662Z,102264.69
2022-11-11T09:10:38.985Z,102258.22
2022-11-11T09:16:44.249Z,102266.97
2022-11-11T09:22:51.207Z,102274.50
2022-11-11T09:28:56.226Z,102285.91
2022-11-11T09:35:01.721Z,102286.34
2022-11-11T09:41:25.187Z,102297.00
2022-11-11T09:47:50.164Z,102296.09
2022-11-11T09:54:05.389Z,102312.13
2022-11-11T10:00:29.261Z,102321.41
2022-11-11T10:06:36.384Z,102338.44
2022-11-11T10:12:56.060Z,102339.88
2022-11-11T10:19:23.403Z,102350.59
2022-11-11T10:25:28.855Z,102352.44
2022-11-11T10:31:35.024Z,102355.56
2022-11-11T10:37:42.333Z,102356.47
2022-11-11T10:43:47.818Z,102378.91
2022-11-11T10:49:57.760Z,102386.94
2022-11-11T10:56:22.208Z,102381.72
2022-11-11T11:02:39.959Z,102373.91
2022-11-11T11:08:53.124Z,102368.19
2022-11-11T11:15:04.317Z,102361.28
2022-11-11T11:21:09.645Z,102359.59
2022-11-11T11:27:26.542Z,102368.97
2022-11-11T11:33:54.494Z,102359.53
2022-11-11T11:40:01.802Z,102354.97
2022-11-11T11:46:30.914Z,102361.03
2022-11-11T11:52:50.114Z,102361.06
2022-11-11T11:59:13.589Z,102350.44
2022-11-11T12:05:27.443Z,102366.94
2022-11-11T12:11:50.735Z,102359.75
2022-11-11T12:18:14.107Z,102354.16
2022-11-11T12:24:31.851Z,102338.25
2022-11-11T12:30:44.829Z,102350.16
2022-11-11T12:36:49.611Z,102347.94
2022-11-11T12:43:17.833Z,102342.13
2022-11-11T12:49:43.806Z,102338.94
2022-11-11T12:56:33.944Z,102352.53
2022-11-11T13:03:08.174Z,102338.47
2022-11-11T13:09:39.460Z,102329.25
2022-11-11T13:15:45.014Z,102329.19
2022-11-11T13:22:05.789Z,102328.38
2022-11-11T13:28:16.694Z,102314.38
2022-11-11T13:34:23.222Z,102321.84
2022-11-11T13:40:40.856Z,102301.50
2022-11-11T13:46:50.111Z,102306.25
2022-11-11T13:53:25.647Z,102303.81
2022-11-11T13:59:35.254Z,102313.16
2022-11-11T14:05:40.570Z,102315.56
2022-11-11T14:11:49.869Z,102312.03
2022-11-11T14:17:58.912Z,102312.81
2022-11-11T14:24:04.373Z,102313.41
2022-11-11T14:30:26.814Z,102315.41
2022-11-11T14:36:39.512Z,102332.69
2022-11-11T14:42:45.425Z,102328.94
2022-11-11T14:48:59.670Z,102334.84
2022-11-11T14:55:19.196Z,102329.03
2022-11-11T15:01:25.932Z,102319.44
2022-11-11T15:07:56.628Z,102318.13
2022-11-11T15:14:32.656Z,102309.88
2022-11-11T15:20:47.212Z,102308.00
2022-11-11T15:27:05.435Z,102310.41
2022-11-11T15:33:48.454Z,102305.31
2022-11-11T15:39:57.547Z,102308.56
2022-11-11T15:46:05.284Z,102304.28
2022-11-11T15:52:25.517Z,102315.75
2022-11-11T15:58:33.206Z,102321.06
2022-11-11T16:04:55.775Z,102343.28
2022-11-11T16:11:02.780Z,102349.94
2022-11-11T16:17:09.141Z,102340.59
2022-11-11T16:23:18.796Z,102349.38
2022-11-11T16:29:34.278Z,102353.09
2022-11-11T16:35:40.813Z,102364.84
2022-11-11T16:41:53.855Z,102357.66
2022-11-11T16:48:02.347Z,102366.19
2022-11-11T16:54:22.863Z,102368.59
2022-11-11T17:00:29.887Z,102377.66
2022-11-11T17:06:54.465Z,102385.38
2022-11-11T17:13:03.399Z,102389.91
2022-11-11T17:19:11.352Z,102406.94
2022-11-11T17:25:36.133Z,102413.28
2022-11-11T17:32:02.426Z,102403.09
2022-11-11T17:38:08.019Z,102419.06
2022-11-11T17:44:13.677Z,102414.88
2022-11-11T17:50:18.989Z,102418.59
2022-11-11T17:56:30.557Z,102423.25
2022-11-11T18:02:36.266Z,102422.91
2022-11-11T18:08:41.992Z,102426.66
2022-11-11T18:14:47.519Z,102430.59
2022-11-11T18:20:53.482Z,102428.53
2022-11-11T18:27:04.039Z,102444.38
2022-11-11T18:33:19.886Z,102441.69
2022-11-11T18:39:25.277Z,102440.88
2022-11-11T18:45:30.983Z,102453.91
2022-11-11T18:51:36.479Z,102471.38
2022-11-11T18:57:44.842Z,102481.31
2022-11-11T19:03:52.274Z,102477.38
2022-11-11T19:09:58.122Z,102483.00
2022-11-11T19:16:06.264Z,102484.72
2022-11-11T19:22:21.446Z,102499.06
2022-11-11T19:28:27.208Z,102494.53
2022-11-11T19:34:35.753Z,102502.53
2022-11-11T19:40:41.155Z,102491.19
2022-11-11T19:46:46.794Z,102491.44
2022-11-11T19:52:52.353Z,102498.38
2022-11-11T19:58:58.125Z,102506.63
2022-11-11T20:05:04.389Z,102514.63
2022-11-11T20:11:10.059Z,102519.88
2022-11-11T20:17:15.769Z,102509.63
2022-11-11T20:23:25.444Z,102518.09
2022-11-11T20:29:31.573Z,102507.78
2022-11-11T20:35:38.624Z,102500.00
2022-11-11T20:41:44.961Z,102500.00
2022-11-11T20:47:50.353Z,102503.66
2022-11-11T20:53:57.414Z,102502.34
2022-11-11T21:00:06.273Z,102496.38
2022-11-11T21:06:14.052Z,102494.97
2022-11-11T21:12:19.575Z,102497.00
2022-11-11T21:18:34.490Z,102506.00
2022-11-11T21:24:42.326Z,102514.53
2022-11-11T21:30:47.840Z,102516.53
2022-11-11T21:36:53.560Z,102528.63
2022-11-11T21:42:59.086Z,102532.72
2022-11-11T21:49:05.314Z,102520.47
2022-11-11T21:55:10.808Z,102537.47
2022-11-11T22:01:20.728Z,102523.63
2022-11-11T22:07:27.212Z,102532.06
2022-11-11T22:13:33.290Z,102534.69
2022-11-11T22:19:38.649Z,102528.91
2022-11-11T22:25:45.418Z,102536.00
2022-11-11T22:31:51.126Z,102537.81
2022-11-11T22:37:59.114Z,102532.63
2022-11-11T22:44:05.189Z,102537.25
2022-11-11T22:50:12.319Z,102531.44
2022-11-11T22:56:19.542Z,102527.59
2022-11-11T23:02:25.511Z,102527.47
2022-11-11T23:08:33.866Z,102528.81
2022-11-11T23:14:39.404Z,102519.09
2022-11-11T23:20:56.273Z,102525.22
2022-11-11T23:27:05.611Z,102528.34
2022-11-11T23:33:11.009Z,102542.38
2022-11-11T23:39:16.093Z,102540.78
2022-11-11T23:45:27.557Z,102532.66
2022-11-11T23:58:50.787Z,102521.34
